KLM148 LTAV-PADQ
Flight info
| Callsign | KLM148 |
|---|---|
| Flight time | 6h 36m |
| Altitude | 30000 |
| Route | YAMAN DCT LEGMU/K0911F300 DCT ROMOK DCT PERUN DCT RAPUL/K0917F290 DCT ETOKA/K0909F300 DCT ELNIK/K0913F290 DCT SOSEB/K0902F310 DCT AMDEN DCT ADOTA DCT LURAM DCT 700016N0393830E 730859N0420000E 75N044E 762156N0455949E 78N049E 80N054E/K0906F330 84N074E 843051N0795955E 85N088E 853838N1181238E 852445N1372858E 85N151E 84N166E 824818N1755823E 80N172W 78N167W 76N164W 740029N1613354W/N0489F330 70N158W/N0489F350 680002N1564550W DCT CIBEB DCT 62N154W DCT WEZZL |
| Aircraft | B77L/H-SDE1E2E3FGHIJ2J3J4J5M1RWXY/LB1D1 |
Departure
| Time | 2026-05-04 03:40 |
|---|---|
| Airport | Sivrihisar Airport (LTAV) |
Arrival
| Time | 2026-05-04 10:16 |
|---|---|
| Airport | Kodiak Airport (PADQ) |
| Time | Latitude | Longitude | Altitude | Speed | Heading |
|---|---|---|---|---|---|
| 2026-05-04 03:32 | 39.44737 | 31.37746 | 3194 ft | 0 kts | 293° |
| 2026-05-04 03:39 | 39.44838 | 31.37440 | 3192 ft | 75 kts | 293° |
| 2026-05-04 03:39 | 39.45140 | 31.36525 | 3188 ft | 145 kts | 292° |
| 2026-05-04 03:39 | 39.45595 | 31.35113 | 3398 ft | 179 kts | 291° |
| 2026-05-04 03:40 | 39.46067 | 31.33652 | 4166 ft | 179 kts | 292° |
| 2026-05-04 03:40 | 39.46608 | 31.32159 | 4878 ft | 188 kts | 294° |
| 2026-05-04 03:40 | 39.47214 | 31.30576 | 5260 ft | 203 kts | 291° |
| 2026-05-04 03:40 | 39.47975 | 31.28987 | 5877 ft | 212 kts | 291° |
| 2026-05-04 03:41 | 39.48887 | 31.27433 | 6488 ft | 222 kts | 290° |
| 2026-05-04 03:41 | 39.49975 | 31.26051 | 7826 ft | 212 kts | 292° |
| 2026-05-04 03:41 | 39.51136 | 31.24916 | 9088 ft | 207 kts | 292° |
| 2026-05-04 03:41 | 39.52372 | 31.23895 | 9801 ft | 219 kts | 290° |
| 2026-05-04 03:42 | 39.53758 | 31.22840 | 10040 ft | 243 kts | 291° |
| 2026-05-04 03:42 | 39.55444 | 31.21932 | 11030 ft | 285 kts | 288° |
| 2026-05-04 03:42 | 39.57472 | 31.21109 | 11321 ft | 321 kts | 291° |
| 2026-05-04 03:42 | 39.59670 | 31.20224 | 11639 ft | 339 kts | 293° |
| 2026-05-04 03:43 | 39.61959 | 31.19246 | 11745 ft | 360 kts | 293° |
| 2026-05-04 03:43 | 39.64528 | 31.18260 | 11941 ft | 417 kts | 304° |
| 2026-05-04 03:43 | 39.67589 | 31.17589 | 12406 ft | 472 kts | 315° |
| 2026-05-04 03:43 | 39.71064 | 31.17359 | 12896 ft | 524 kts | 326° |
| 2026-05-04 03:44 | 39.74817 | 31.17654 | 13466 ft | 564 kts | 336° |
| 2026-05-04 03:44 | 39.78812 | 31.18387 | 14086 ft | 590 kts | 342° |
| 2026-05-04 03:44 | 39.82895 | 31.19474 | 14864 ft | 603 kts | 347° |
| 2026-05-04 03:44 | 39.87000 | 31.20826 | 15682 ft | 612 kts | 351° |
| 2026-05-04 03:45 | 39.91137 | 31.22431 | 16267 ft | 630 kts | 356° |
| 2026-05-04 03:45 | 39.95270 | 31.24496 | 16900 ft | 654 kts | 6° |
| 2026-05-04 03:45 | 39.99391 | 31.27029 | 17844 ft | 654 kts | 14° |
| 2026-05-04 03:45 | 40.03495 | 31.29678 | 18324 ft | 662 kts | 21° |
| 2026-05-04 03:46 | 40.07675 | 31.32375 | 18494 ft | 675 kts | 20° |
| 2026-05-04 03:46 | 40.11957 | 31.35049 | 18598 ft | 690 kts | 19° |
| 2026-05-04 03:46 | 40.16355 | 31.37621 | 18868 ft | 694 kts | 13° |
| 2026-05-04 03:46 | 40.20854 | 31.39723 | 19218 ft | 692 kts | 6° |
| 2026-05-04 03:47 | 40.25488 | 31.41430 | 19682 ft | 690 kts | 360° |
| 2026-05-04 03:47 | 40.30154 | 31.42790 | 20229 ft | 681 kts | 354° |
| 2026-05-04 03:47 | 40.34786 | 31.43707 | 20750 ft | 664 kts | 346° |
| 2026-05-04 03:47 | 40.39383 | 31.44178 | 21184 ft | 660 kts | 343° |
| 2026-05-04 03:48 | 40.43934 | 31.44527 | 21632 ft | 661 kts | 342° |
| 2026-05-04 03:48 | 40.48549 | 31.44847 | 22115 ft | 664 kts | 343° |
| 2026-05-04 03:48 | 40.53198 | 31.45185 | 22578 ft | 670 kts | 343° |
| 2026-05-04 03:48 | 40.57881 | 31.45558 | 22820 ft | 677 kts | 344° |
| 2026-05-04 03:49 | 40.62559 | 31.45966 | 23209 ft | 681 kts | 345° |
| 2026-05-04 03:49 | 40.67306 | 31.46432 | 23768 ft | 682 kts | 345° |
| 2026-05-04 03:49 | 40.72063 | 31.46923 | 24139 ft | 684 kts | 346° |
| 2026-05-04 03:49 | 40.76820 | 31.47403 | 24541 ft | 687 kts | 345° |
| 2026-05-04 03:50 | 40.81602 | 31.47869 | 24820 ft | 691 kts | 345° |
| 2026-05-04 03:50 | 40.86415 | 31.48326 | 25087 ft | 695 kts | 346° |
| 2026-05-04 03:50 | 40.91202 | 31.48759 | 25422 ft | 699 kts | 347° |
| 2026-05-04 03:50 | 40.96068 | 31.49223 | 25900 ft | 697 kts | 346° |
| 2026-05-04 03:51 | 41.00908 | 31.49705 | 26411 ft | 697 kts | 346° |
| 2026-05-04 03:51 | 41.05776 | 31.50182 | 26784 ft | 701 kts | 346° |
| 2026-05-04 03:51 | 41.10654 | 31.50655 | 26995 ft | 703 kts | 346° |
| 2026-05-04 03:51 | 41.15542 | 31.51126 | 27437 ft | 703 kts | 346° |
| 2026-05-04 03:52 | 41.20384 | 31.51597 | 27830 ft | 704 kts | 346° |
| 2026-05-04 03:52 | 41.25278 | 31.52074 | 28148 ft | 706 kts | 346° |
| 2026-05-04 03:52 | 41.30196 | 31.52550 | 28437 ft | 709 kts | 346° |
| 2026-05-04 03:52 | 41.35142 | 31.53023 | 28703 ft | 713 kts | 346° |
| 2026-05-04 03:53 | 41.40114 | 31.53504 | 29021 ft | 715 kts | 346° |
| 2026-05-04 03:53 | 41.45020 | 31.53985 | 29362 ft | 715 kts | 346° |
| 2026-05-04 03:53 | 41.49987 | 31.54476 | 29660 ft | 716 kts | 346° |
| 2026-05-04 03:53 | 41.54993 | 31.54971 | 29898 ft | 719 kts | 347° |
| 2026-05-04 03:54 | 41.60003 | 31.55469 | 29988 ft | 724 kts | 347° |
| 2026-05-04 03:54 | 41.70106 | 31.56505 | 29991 ft | 725 kts | 347° |
| 2026-05-04 03:55 | 41.80101 | 31.57767 | 29991 ft | 733 kts | 353° |
| 2026-05-04 03:55 | 41.85193 | 31.58973 | 29967 ft | 746 kts | 9° |
| 2026-05-04 03:55 | 41.90310 | 31.60424 | 30021 ft | 754 kts | 12° |
| 2026-05-04 03:56 | 42.00590 | 31.63637 | 30022 ft | 770 kts | 14° |
| 2026-05-04 03:56 | 42.11115 | 31.67195 | 30029 ft | 785 kts | 13° |
| 2026-05-04 03:57 | 42.21788 | 31.70507 | 29991 ft | 784 kts | 11° |
| 2026-05-04 03:57 | 42.32496 | 31.73531 | 30020 ft | 796 kts | 10° |
| 2026-05-04 03:58 | 42.48911 | 31.78154 | 30025 ft | 812 kts | 11° |
| 2026-05-04 03:58 | 42.60022 | 31.81398 | 30016 ft | 820 kts | 11° |
| 2026-05-04 03:59 | 42.71144 | 31.84682 | 29993 ft | 820 kts | 11° |
| 2026-05-04 03:59 | 42.82335 | 31.87980 | 29994 ft | 819 kts | 11° |
| 2026-05-04 04:00 | 42.93424 | 31.91244 | 29997 ft | 818 kts | 11° |
| 2026-05-04 04:00 | 43.04590 | 31.94540 | 30001 ft | 818 kts | 11° |
| 2026-05-04 04:01 | 43.15672 | 31.97829 | 30000 ft | 817 kts | 11° |
| 2026-05-04 04:01 | 43.24925 | 32.00586 | 30002 ft | 817 kts | 11° |
| 2026-05-04 04:02 | 43.37860 | 32.04455 | 30001 ft | 817 kts | 11° |
| 2026-05-04 04:02 | 43.47131 | 32.07238 | 30001 ft | 817 kts | 11° |
| 2026-05-04 04:03 | 43.58274 | 32.10594 | 30002 ft | 817 kts | 11° |
| 2026-05-04 04:03 | 43.69329 | 32.13935 | 30001 ft | 817 kts | 11° |
| 2026-05-04 04:04 | 43.80463 | 32.17314 | 30001 ft | 817 kts | 11° |
| 2026-05-04 04:04 | 43.91545 | 32.20690 | 30001 ft | 817 kts | 11° |
| 2026-05-04 04:05 | 44.02678 | 32.24095 | 30001 ft | 817 kts | 11° |
| 2026-05-04 04:05 | 44.13743 | 32.27491 | 30003 ft | 817 kts | 11° |
| 2026-05-04 04:06 | 44.24882 | 32.30923 | 30001 ft | 817 kts | 12° |
| 2026-05-04 04:06 | 44.35969 | 32.34353 | 30001 ft | 817 kts | 12° |
| 2026-05-04 04:07 | 44.47050 | 32.37794 | 30002 ft | 817 kts | 12° |
| 2026-05-04 04:07 | 44.58176 | 32.41263 | 30002 ft | 817 kts | 12° |
| 2026-05-04 04:08 | 44.69249 | 32.44728 | 29998 ft | 818 kts | 12° |
| 2026-05-04 04:08 | 44.80370 | 32.48222 | 30002 ft | 817 kts | 12° |
| 2026-05-04 04:09 | 44.91486 | 32.51729 | 30001 ft | 817 kts | 12° |
| 2026-05-04 04:09 | 45.02534 | 32.55228 | 30001 ft | 817 kts | 12° |
| 2026-05-04 04:10 | 45.13639 | 32.58759 | 30001 ft | 817 kts | 12° |
| 2026-05-04 04:10 | 45.24750 | 32.62306 | 30001 ft | 817 kts | 12° |
| 2026-05-04 04:11 | 45.35796 | 32.65846 | 30019 ft | 817 kts | 12° |
| 2026-05-04 04:11 | 45.46922 | 32.69427 | 29996 ft | 818 kts | 12° |
| 2026-05-04 04:12 | 45.58037 | 32.73018 | 30023 ft | 817 kts | 12° |
| 2026-05-04 04:12 | 45.69097 | 32.76607 | 29996 ft | 818 kts | 12° |
| 2026-05-04 04:13 | 45.80208 | 32.80227 | 30001 ft | 818 kts | 12° |
| 2026-05-04 04:13 | 45.91254 | 32.83840 | 30000 ft | 818 kts | 12° |
| 2026-05-04 04:14 | 46.02388 | 32.87497 | 30013 ft | 818 kts | 12° |
| 2026-05-04 04:14 | 46.13492 | 32.91161 | 30000 ft | 818 kts | 12° |
| 2026-05-04 04:15 | 46.24496 | 32.95014 | 29999 ft | 818 kts | 14° |
| 2026-05-04 04:15 | 46.35542 | 32.99117 | 29997 ft | 818 kts | 15° |
| 2026-05-04 04:16 | 46.46546 | 33.03210 | 30001 ft | 818 kts | 14° |
| 2026-05-04 04:16 | 46.57600 | 33.07260 | 29997 ft | 818 kts | 14° |
| 2026-05-04 04:17 | 46.68616 | 33.11284 | 29999 ft | 818 kts | 14° |
| 2026-05-04 04:17 | 46.79684 | 33.15358 | 30019 ft | 818 kts | 14° |
| 2026-05-04 04:18 | 46.90723 | 33.19454 | 29993 ft | 818 kts | 14° |
| 2026-05-04 04:18 | 47.01697 | 33.23544 | 30002 ft | 818 kts | 14° |
| 2026-05-04 04:19 | 47.12742 | 33.27675 | 30000 ft | 818 kts | 14° |
| 2026-05-04 04:19 | 47.23796 | 33.31825 | 30002 ft | 818 kts | 14° |
| 2026-05-04 04:20 | 47.34780 | 33.35965 | 29996 ft | 818 kts | 14° |
| 2026-05-04 04:20 | 47.45832 | 33.40152 | 30011 ft | 818 kts | 14° |
| 2026-05-04 04:21 | 47.56827 | 33.44334 | 29996 ft | 819 kts | 14° |
| 2026-05-04 04:21 | 47.67892 | 33.48562 | 30000 ft | 818 kts | 14° |
| 2026-05-04 04:22 | 47.78879 | 33.52778 | 30002 ft | 818 kts | 15° |
| 2026-05-04 04:22 | 47.89928 | 33.57037 | 30003 ft | 818 kts | 15° |
| 2026-05-04 04:23 | 48.00939 | 33.61212 | 29998 ft | 818 kts | 14° |
| 2026-05-04 04:23 | 48.12036 | 33.65237 | 30001 ft | 818 kts | 13° |
| 2026-05-04 04:24 | 48.23090 | 33.69230 | 30000 ft | 818 kts | 13° |
| 2026-05-04 04:24 | 48.34173 | 33.73308 | 29995 ft | 819 kts | 14° |
| 2026-05-04 04:25 | 48.45169 | 33.77410 | 30001 ft | 818 kts | 14° |
| 2026-05-04 04:25 | 48.56239 | 33.81555 | 30000 ft | 819 kts | 14° |
| 2026-05-04 04:26 | 48.67324 | 33.85711 | 30001 ft | 819 kts | 14° |
| 2026-05-04 04:26 | 48.78354 | 33.89860 | 30010 ft | 819 kts | 14° |
| 2026-05-04 04:27 | 48.89446 | 33.94053 | 29998 ft | 819 kts | 14° |
| 2026-05-04 04:27 | 49.00444 | 33.98232 | 29995 ft | 819 kts | 14° |
| 2026-05-04 04:28 | 49.11521 | 34.02461 | 29996 ft | 818 kts | 14° |
| 2026-05-04 04:28 | 49.22603 | 34.06711 | 29997 ft | 818 kts | 14° |
| 2026-05-04 04:29 | 49.33575 | 34.10939 | 29997 ft | 817 kts | 14° |
| 2026-05-04 04:29 | 49.44628 | 34.15217 | 30001 ft | 817 kts | 14° |
| 2026-05-04 04:30 | 49.55666 | 34.19508 | 30000 ft | 817 kts | 14° |
| 2026-05-04 04:30 | 49.66637 | 34.23793 | 30000 ft | 818 kts | 14° |
| 2026-05-04 04:31 | 49.77687 | 34.28130 | 29997 ft | 818 kts | 14° |
| 2026-05-04 04:31 | 49.88746 | 34.32491 | 30002 ft | 818 kts | 14° |
| 2026-05-04 04:32 | 49.99733 | 34.36845 | 29993 ft | 819 kts | 14° |
| 2026-05-04 04:32 | 50.10812 | 34.41255 | 29998 ft | 819 kts | 14° |
| 2026-05-04 04:33 | 50.21798 | 34.45649 | 30010 ft | 819 kts | 14° |
| 2026-05-04 04:33 | 50.32850 | 34.50090 | 29999 ft | 819 kts | 14° |
| 2026-05-04 04:34 | 50.43855 | 34.54535 | 29998 ft | 819 kts | 14° |
| 2026-05-04 04:34 | 50.54912 | 34.59021 | 29997 ft | 819 kts | 15° |
| 2026-05-04 04:35 | 50.65961 | 34.63526 | 30007 ft | 819 kts | 15° |
| 2026-05-04 04:35 | 50.76935 | 34.68023 | 29997 ft | 819 kts | 15° |
| 2026-05-04 04:36 | 50.87988 | 34.72575 | 29994 ft | 819 kts | 15° |
| 2026-05-04 04:36 | 50.98962 | 34.77114 | 29998 ft | 818 kts | 15° |
| 2026-05-04 04:37 | 51.21001 | 34.86299 | 30000 ft | 818 kts | 15° |
| 2026-05-04 04:38 | 51.32047 | 34.90938 | 29998 ft | 818 kts | 15° |
| 2026-05-04 04:38 | 51.43031 | 34.95574 | 29999 ft | 819 kts | 15° |
| 2026-05-04 04:39 | 51.54061 | 35.00251 | 29995 ft | 819 kts | 15° |
| 2026-05-04 04:39 | 51.65013 | 35.04919 | 29996 ft | 818 kts | 15° |
| 2026-05-04 04:40 | 51.76039 | 35.09642 | 30001 ft | 818 kts | 15° |
| 2026-05-04 04:40 | 51.87061 | 35.14388 | 29996 ft | 818 kts | 15° |
| 2026-05-04 04:41 | 51.98062 | 35.19149 | 30011 ft | 818 kts | 15° |
| 2026-05-04 04:41 | 52.09010 | 35.23910 | 29998 ft | 819 kts | 15° |
| 2026-05-04 04:42 | 52.20033 | 35.28729 | 30002 ft | 818 kts | 15° |
| 2026-05-04 04:42 | 52.30998 | 35.33547 | 29998 ft | 819 kts | 15° |
| 2026-05-04 04:43 | 52.42013 | 35.38413 | 30018 ft | 819 kts | 15° |
| 2026-05-04 04:43 | 52.53034 | 35.43305 | 29994 ft | 819 kts | 16° |
| 2026-05-04 04:44 | 52.64054 | 35.48226 | 29999 ft | 819 kts | 16° |
| 2026-05-04 04:44 | 52.75065 | 35.53243 | 30011 ft | 819 kts | 18° |
| 2026-05-04 04:45 | 52.85887 | 35.58780 | 29999 ft | 819 kts | 20° |
| 2026-05-04 04:47 | 53.23847 | 35.78862 | 29999 ft | 817 kts | 19° |
| 2026-05-04 04:47 | 53.34727 | 35.84560 | 29996 ft | 817 kts | 19° |
| 2026-05-04 04:48 | 53.45511 | 35.90275 | 30002 ft | 817 kts | 20° |
| 2026-05-04 04:49 | 53.70833 | 36.03834 | 29994 ft | 817 kts | 20° |
| 2026-05-04 04:49 | 53.81678 | 36.09683 | 29993 ft | 817 kts | 20° |
| 2026-05-04 04:50 | 53.92529 | 36.15567 | 30009 ft | 817 kts | 20° |
| 2026-05-04 04:50 | 54.03296 | 36.21440 | 29993 ft | 817 kts | 20° |
| 2026-05-04 04:51 | 54.14135 | 36.27386 | 29996 ft | 817 kts | 20° |
| 2026-05-04 04:51 | 54.24977 | 36.33366 | 30006 ft | 817 kts | 20° |
| 2026-05-04 04:52 | 54.35756 | 36.39344 | 29996 ft | 818 kts | 20° |
| 2026-05-04 04:52 | 54.46597 | 36.45388 | 30003 ft | 818 kts | 20° |
| 2026-05-04 04:53 | 54.57416 | 36.51454 | 30000 ft | 817 kts | 20° |
| 2026-05-04 04:53 | 54.68160 | 36.57512 | 29998 ft | 817 kts | 20° |
| 2026-05-04 04:54 | 54.78985 | 36.63651 | 29998 ft | 817 kts | 20° |
| 2026-05-04 04:54 | 54.89785 | 36.69810 | 29996 ft | 817 kts | 20° |
| 2026-05-04 04:55 | 55.00596 | 36.76009 | 29996 ft | 816 kts | 20° |
| 2026-05-04 04:55 | 55.11336 | 36.82203 | 29990 ft | 817 kts | 21° |
| 2026-05-04 04:56 | 55.22149 | 36.88476 | 30002 ft | 817 kts | 21° |
| 2026-05-04 04:56 | 55.32919 | 36.94758 | 30001 ft | 818 kts | 21° |
| 2026-05-04 04:57 | 55.43744 | 37.01110 | 29997 ft | 818 kts | 21° |
| 2026-05-04 04:57 | 55.54547 | 37.07483 | 29998 ft | 819 kts | 21° |
| 2026-05-04 04:58 | 55.65291 | 37.13861 | 30017 ft | 818 kts | 21° |
| 2026-05-04 04:58 | 55.76132 | 37.20334 | 29996 ft | 818 kts | 21° |
| 2026-05-04 04:59 | 55.86939 | 37.26824 | 29997 ft | 818 kts | 21° |
| 2026-05-04 04:59 | 55.97671 | 37.33305 | 29986 ft | 817 kts | 21° |
| 2026-05-04 05:00 | 56.08455 | 37.39856 | 29996 ft | 817 kts | 21° |
| 2026-05-04 05:01 | 56.24571 | 37.49725 | 29993 ft | 817 kts | 22° |
| 2026-05-04 05:01 | 56.35270 | 37.56322 | 29990 ft | 816 kts | 22° |
| 2026-05-04 05:02 | 56.46015 | 37.62988 | 30009 ft | 816 kts | 22° |
| 2026-05-04 05:02 | 56.56769 | 37.69700 | 29998 ft | 816 kts | 22° |
| 2026-05-04 05:03 | 56.67529 | 37.76457 | 30012 ft | 816 kts | 22° |
| 2026-05-04 05:04 | 56.88942 | 37.90026 | 30019 ft | 817 kts | 22° |
| 2026-05-04 05:04 | 56.99691 | 37.96900 | 29993 ft | 817 kts | 22° |
| 2026-05-04 05:06 | 57.41666 | 38.28381 | 29996 ft | 814 kts | 27° |
| 2026-05-04 05:07 | 57.52082 | 38.36342 | 30002 ft | 814 kts | 27° |
| 2026-05-04 05:07 | 57.62588 | 38.44383 | 29999 ft | 813 kts | 27° |
| 2026-05-04 05:09 | 58.09529 | 38.81364 | 29999 ft | 813 kts | 28° |
| 2026-05-04 05:10 | 58.19895 | 38.89666 | 29999 ft | 813 kts | 28° |
| 2026-05-04 05:10 | 58.30342 | 38.98102 | 29999 ft | 815 kts | 18° |
| 2026-05-04 05:11 | 58.40779 | 39.06568 | 30010 ft | 815 kts | 18° |
| 2026-05-04 05:11 | 58.51165 | 39.15045 | 29995 ft | 814 kts | 19° |
| 2026-05-04 05:12 | 58.61602 | 39.23628 | 30000 ft | 814 kts | 19° |
| 2026-05-04 05:12 | 58.71950 | 39.32191 | 30010 ft | 814 kts | 19° |
| 2026-05-04 05:13 | 58.82362 | 39.40866 | 30007 ft | 814 kts | 19° |
| 2026-05-04 05:13 | 58.92722 | 39.49553 | 29997 ft | 815 kts | 19° |
| 2026-05-04 05:14 | 59.03140 | 39.58345 | 30002 ft | 816 kts | 19° |
| 2026-05-04 05:14 | 59.13514 | 39.67156 | 30012 ft | 816 kts | 19° |
| 2026-05-04 05:15 | 59.23933 | 39.76069 | 29992 ft | 816 kts | 19° |
| 2026-05-04 05:15 | 59.34350 | 39.85040 | 29997 ft | 816 kts | 20° |
| 2026-05-04 05:16 | 59.44674 | 39.93990 | 29997 ft | 815 kts | 20° |
| 2026-05-04 05:16 | 59.55055 | 40.03049 | 30002 ft | 815 kts | 20° |
| 2026-05-04 05:17 | 59.65443 | 40.12175 | 30017 ft | 815 kts | 20° |
| 2026-05-04 05:17 | 59.75762 | 40.21305 | 29999 ft | 815 kts | 20° |
| 2026-05-04 05:18 | 59.86139 | 40.30546 | 30000 ft | 815 kts | 20° |
| 2026-05-04 05:18 | 59.96444 | 40.39786 | 29998 ft | 816 kts | 20° |
| 2026-05-04 05:19 | 60.06830 | 40.49164 | 29997 ft | 816 kts | 20° |
| 2026-05-04 05:19 | 60.17135 | 40.58533 | 29996 ft | 816 kts | 20° |
| 2026-05-04 05:20 | 60.27507 | 40.68030 | 30009 ft | 816 kts | 21° |
| 2026-05-04 05:20 | 60.37806 | 40.77525 | 29996 ft | 816 kts | 21° |
| 2026-05-04 05:21 | 60.48169 | 40.87145 | 30008 ft | 817 kts | 21° |
| 2026-05-04 05:21 | 60.58454 | 40.96762 | 29990 ft | 817 kts | 21° |
| 2026-05-04 05:22 | 60.68742 | 41.06450 | 30001 ft | 817 kts | 21° |
| 2026-05-04 05:22 | 60.79072 | 41.16245 | 30011 ft | 817 kts | 21° |
| 2026-05-04 05:23 | 60.89405 | 41.26114 | 29992 ft | 817 kts | 21° |
| 2026-05-04 05:23 | 60.99653 | 41.35973 | 29996 ft | 817 kts | 21° |
| 2026-05-04 05:24 | 61.09969 | 41.45968 | 30007 ft | 816 kts | 22° |
| 2026-05-04 05:24 | 61.20198 | 41.55949 | 29999 ft | 816 kts | 22° |
| 2026-05-04 05:25 | 61.30474 | 41.66051 | 30009 ft | 816 kts | 22° |
| 2026-05-04 05:25 | 61.40762 | 41.76239 | 29992 ft | 816 kts | 22° |
| 2026-05-04 05:26 | 61.50974 | 41.86425 | 30002 ft | 816 kts | 22° |
| 2026-05-04 05:26 | 61.61237 | 41.96736 | 30002 ft | 817 kts | 22° |
| 2026-05-04 05:28 | 62.02206 | 42.38674 | 29995 ft | 817 kts | 23° |
| 2026-05-04 05:29 | 62.12372 | 42.49276 | 30009 ft | 817 kts | 23° |
| 2026-05-04 05:29 | 62.22590 | 42.60013 | 29994 ft | 817 kts | 23° |
| 2026-05-04 05:31 | 62.63238 | 43.03549 | 30011 ft | 816 kts | 24° |
| 2026-05-04 05:32 | 62.73445 | 43.14689 | 29992 ft | 816 kts | 24° |
| 2026-05-04 05:33 | 62.88631 | 43.31428 | 30000 ft | 816 kts | 24° |
| 2026-05-04 05:33 | 62.98781 | 43.42727 | 29998 ft | 817 kts | 25° |
| 2026-05-04 05:34 | 63.08931 | 43.54115 | 30000 ft | 817 kts | 25° |
| 2026-05-04 05:34 | 63.19009 | 43.65510 | 30001 ft | 817 kts | 25° |
| 2026-05-04 05:35 | 63.27450 | 43.75123 | 30008 ft | 818 kts | 25° |
| 2026-05-04 05:35 | 63.37548 | 43.86708 | 29997 ft | 818 kts | 25° |
| 2026-05-04 05:36 | 63.47658 | 43.98400 | 30001 ft | 818 kts | 25° |
| 2026-05-04 05:36 | 63.57774 | 44.10193 | 29995 ft | 818 kts | 22° |
| 2026-05-04 05:37 | 63.67869 | 44.22063 | 30001 ft | 816 kts | 23° |
| 2026-05-04 05:37 | 63.77872 | 44.33912 | 29995 ft | 814 kts | 23° |
| 2026-05-04 05:38 | 63.92866 | 44.51852 | 30010 ft | 812 kts | 23° |
| 2026-05-04 05:38 | 64.02854 | 44.63926 | 29995 ft | 812 kts | 23° |
| 2026-05-04 05:39 | 64.17778 | 44.82153 | 30002 ft | 812 kts | 24° |
| 2026-05-04 05:40 | 64.32695 | 45.00598 | 29997 ft | 813 kts | 24° |
| 2026-05-04 05:40 | 64.42656 | 45.13042 | 30002 ft | 814 kts | 24° |
| 2026-05-04 05:41 | 64.52635 | 45.25614 | 30012 ft | 814 kts | 24° |
| 2026-05-04 05:41 | 64.62586 | 45.38256 | 29995 ft | 814 kts | 24° |
| 2026-05-04 05:42 | 64.72472 | 45.50923 | 30019 ft | 814 kts | 25° |
| 2026-05-04 05:42 | 64.82421 | 45.63780 | 29995 ft | 815 kts | 25° |
| 2026-05-04 05:43 | 64.92339 | 45.76755 | 29999 ft | 815 kts | 26° |
| 2026-05-04 05:45 | 65.31009 | 46.32925 | 29998 ft | 814 kts | 28° |
| 2026-05-04 05:47 | 65.69638 | 46.90550 | 30002 ft | 818 kts | 31° |
| 2026-05-04 05:47 | 65.79299 | 47.05312 | 29997 ft | 819 kts | 31° |
| 2026-05-04 05:48 | 65.88927 | 47.20147 | 29998 ft | 819 kts | 31° |
| 2026-05-04 05:48 | 65.98506 | 47.35043 | 30002 ft | 819 kts | 32° |
| 2026-05-04 05:49 | 66.08129 | 47.50146 | 29992 ft | 819 kts | 32° |
| 2026-05-04 05:49 | 66.17685 | 47.65280 | 29998 ft | 818 kts | 32° |
| 2026-05-04 05:51 | 66.55852 | 48.27132 | 30009 ft | 817 kts | 33° |
| 2026-05-04 05:52 | 66.65306 | 48.42808 | 29995 ft | 818 kts | 33° |
| 2026-05-04 05:52 | 66.74804 | 48.58708 | 29997 ft | 818 kts | 33° |
| 2026-05-04 05:54 | 67.12615 | 49.23514 | 29992 ft | 819 kts | 34° |
| 2026-05-04 05:55 | 67.21996 | 49.39982 | 29999 ft | 819 kts | 34° |
| 2026-05-04 05:55 | 67.31385 | 49.56623 | 30010 ft | 818 kts | 35° |
| 2026-05-04 05:56 | 67.40788 | 49.73451 | 29999 ft | 818 kts | 35° |
| 2026-05-04 05:56 | 67.50107 | 49.90291 | 29999 ft | 817 kts | 35° |
| 2026-05-04 05:57 | 67.59470 | 50.07375 | 29997 ft | 817 kts | 36° |
| 2026-05-04 05:57 | 67.68743 | 50.24463 | 29997 ft | 817 kts | 36° |
| 2026-05-04 05:58 | 67.78043 | 50.41773 | 30011 ft | 817 kts | 36° |
| 2026-05-04 05:58 | 67.87335 | 50.59243 | 29998 ft | 818 kts | 36° |
| 2026-05-04 05:59 | 67.96577 | 50.76787 | 30009 ft | 818 kts | 37° |
| 2026-05-04 05:59 | 68.05790 | 50.94450 | 30001 ft | 818 kts | 37° |
| 2026-05-04 06:00 | 68.15026 | 51.12339 | 29997 ft | 818 kts | 37° |
| 2026-05-04 06:00 | 68.24258 | 51.30408 | 30013 ft | 818 kts | 37° |
| 2026-05-04 06:01 | 68.33394 | 51.48472 | 29997 ft | 817 kts | 38° |
| 2026-05-04 06:03 | 68.70769 | 52.18683 | 30010 ft | 816 kts | 31° |
| 2026-05-04 06:05 | 69.13618 | 52.96537 | 30010 ft | 818 kts | 33° |
| 2026-05-04 06:06 | 69.23108 | 53.14319 | 30000 ft | 818 kts | 33° |
| 2026-05-04 06:06 | 69.32521 | 53.32148 | 30003 ft | 818 kts | 34° |
| 2026-05-04 06:07 | 69.41963 | 53.50251 | 30001 ft | 818 kts | 34° |
| 2026-05-04 06:07 | 69.51341 | 53.68437 | 30001 ft | 818 kts | 34° |
| 2026-05-04 06:08 | 69.60727 | 53.86833 | 30001 ft | 818 kts | 35° |
| 2026-05-04 06:08 | 69.70117 | 54.05432 | 30002 ft | 818 kts | 35° |
| 2026-05-04 06:09 | 69.79495 | 54.24210 | 29997 ft | 818 kts | 35° |
| 2026-05-04 06:11 | 70.16643 | 55.00692 | 30011 ft | 818 kts | 36° |
| 2026-05-04 06:13 | 70.53448 | 55.79948 | 30001 ft | 817 kts | 38° |
| 2026-05-04 06:14 | 70.85333 | 56.51628 | 29998 ft | 817 kts | 39° |
| 2026-05-04 06:15 | 70.94427 | 56.72614 | 30017 ft | 817 kts | 39° |
| 2026-05-04 06:15 | 71.03480 | 56.93749 | 30007 ft | 817 kts | 39° |
| 2026-05-04 06:16 | 71.12470 | 57.14992 | 29999 ft | 817 kts | 39° |
| 2026-05-04 06:16 | 71.21458 | 57.36485 | 30007 ft | 816 kts | 40° |
| 2026-05-04 06:17 | 71.30400 | 57.58123 | 30016 ft | 818 kts | 40° |
| 2026-05-04 06:17 | 71.39383 | 57.80130 | 30320 ft | 819 kts | 40° |
| 2026-05-04 06:18 | 71.43871 | 57.91220 | 30601 ft | 816 kts | 41° |
| 2026-05-04 06:18 | 71.48327 | 58.02297 | 30859 ft | 815 kts | 41° |
| 2026-05-04 06:18 | 71.52714 | 58.13269 | 31090 ft | 814 kts | 41° |
| 2026-05-04 06:20 | 71.83542 | 58.92316 | 32008 ft | 812 kts | 42° |
| 2026-05-04 06:21 | 72.05276 | 59.50150 | 32002 ft | 810 kts | 43° |
| 2026-05-04 06:22 | 72.13895 | 59.73596 | 32002 ft | 809 kts | 44° |
| 2026-05-04 06:25 | 72.72067 | 61.39955 | 32000 ft | 809 kts | 46° |
| 2026-05-04 06:26 | 72.80479 | 61.65265 | 32002 ft | 809 kts | 46° |
| 2026-05-04 06:26 | 72.88804 | 61.90645 | 32002 ft | 808 kts | 47° |
| 2026-05-04 06:27 | 73.09577 | 62.55477 | 32000 ft | 808 kts | 48° |
| 2026-05-04 06:28 | 73.17769 | 62.81652 | 32001 ft | 807 kts | 48° |
| 2026-05-04 06:28 | 73.25987 | 63.08270 | 32002 ft | 807 kts | 49° |
| 2026-05-04 06:29 | 73.34152 | 63.35084 | 32001 ft | 806 kts | 49° |
| 2026-05-04 06:29 | 73.42237 | 63.61997 | 32002 ft | 806 kts | 49° |
| 2026-05-04 06:30 | 73.50339 | 63.89346 | 32002 ft | 806 kts | 50° |
| 2026-05-04 06:30 | 73.58362 | 64.16809 | 32001 ft | 805 kts | 50° |
| 2026-05-04 06:31 | 73.66394 | 64.44688 | 32002 ft | 805 kts | 51° |
| 2026-05-04 06:31 | 73.74338 | 64.72656 | 32003 ft | 804 kts | 51° |
| 2026-05-04 06:33 | 74.05714 | 65.87123 | 32001 ft | 803 kts | 53° |
| 2026-05-04 06:34 | 74.13465 | 66.16440 | 32002 ft | 802 kts | 53° |
| 2026-05-04 06:34 | 74.21191 | 66.46094 | 32005 ft | 802 kts | 53° |
| 2026-05-04 06:36 | 74.51583 | 67.67170 | 32010 ft | 807 kts | 41° |
| 2026-05-04 06:37 | 74.59125 | 67.98319 | 32007 ft | 811 kts | 47° |
| 2026-05-04 06:37 | 74.66695 | 68.30126 | 32011 ft | 814 kts | 48° |
| 2026-05-04 06:38 | 74.74193 | 68.62137 | 32006 ft | 816 kts | 48° |
| 2026-05-04 06:40 | 75.03865 | 69.93861 | 31999 ft | 813 kts | 50° |
| 2026-05-04 06:40 | 75.11106 | 70.27326 | 32001 ft | 812 kts | 51° |
| 2026-05-04 06:41 | 75.18301 | 70.61126 | 32001 ft | 812 kts | 51° |
| 2026-05-04 06:41 | 75.25476 | 70.95392 | 32002 ft | 812 kts | 52° |
| 2026-05-04 06:42 | 75.32585 | 71.29905 | 32001 ft | 811 kts | 51° |
| 2026-05-04 06:44 | 75.60502 | 72.71279 | 32002 ft | 812 kts | 51° |
| 2026-05-04 06:44 | 75.67316 | 73.07299 | 32002 ft | 812 kts | 51° |
| 2026-05-04 06:45 | 75.74128 | 73.43939 | 32001 ft | 813 kts | 52° |
| 2026-05-04 06:45 | 75.80886 | 73.80929 | 32001 ft | 813 kts | 53° |
| 2026-05-04 06:46 | 75.87536 | 74.17982 | 32002 ft | 813 kts | 53° |
| 2026-05-04 06:46 | 75.94182 | 74.55687 | 32001 ft | 813 kts | 54° |
| 2026-05-04 06:48 | 76.20092 | 76.09537 | 32002 ft | 813 kts | 56° |
| 2026-05-04 06:50 | 76.44969 | 77.68787 | 32001 ft | 812 kts | 59° |
| 2026-05-04 06:51 | 76.51023 | 78.09480 | 32002 ft | 812 kts | 59° |
| 2026-05-04 06:51 | 76.57048 | 78.50731 | 32002 ft | 812 kts | 59° |
| 2026-05-04 06:52 | 76.63440 | 78.90714 | 32012 ft | 812 kts | 51° |
| 2026-05-04 06:52 | 76.70539 | 79.28791 | 31997 ft | 811 kts | 49° |
| 2026-05-04 06:53 | 76.77756 | 79.66340 | 32002 ft | 811 kts | 50° |
| 2026-05-04 06:53 | 76.84843 | 80.04865 | 32006 ft | 812 kts | 52° |
| 2026-05-04 06:54 | 76.91739 | 80.44209 | 32003 ft | 813 kts | 53° |
| 2026-05-04 06:54 | 76.98587 | 80.84244 | 32002 ft | 813 kts | 53° |
| 2026-05-04 06:55 | 77.05359 | 81.24311 | 32002 ft | 813 kts | 54° |
| 2026-05-04 06:55 | 77.12141 | 81.64992 | 32001 ft | 813 kts | 54° |
| 2026-05-04 06:57 | 77.38446 | 83.31109 | 32003 ft | 812 kts | 57° |
| 2026-05-04 06:58 | 77.44883 | 83.73888 | 32000 ft | 812 kts | 58° |
| 2026-05-04 06:58 | 77.51206 | 84.16774 | 32001 ft | 812 kts | 58° |
| 2026-05-04 06:59 | 77.57486 | 84.60268 | 32002 ft | 811 kts | 59° |
| 2026-05-04 06:59 | 77.63717 | 85.04350 | 32001 ft | 811 kts | 60° |
| 2026-05-04 07:01 | 77.87732 | 86.83684 | 32011 ft | 810 kts | 57° |
| 2026-05-04 07:02 | 77.93583 | 87.29821 | 32007 ft | 812 kts | 58° |
| 2026-05-04 07:02 | 77.99352 | 87.76362 | 32001 ft | 813 kts | 59° |
| 2026-05-04 07:03 | 78.05066 | 88.23549 | 32001 ft | 813 kts | 59° |
| 2026-05-04 07:03 | 78.10660 | 88.70844 | 32001 ft | 814 kts | 60° |
| 2026-05-04 07:04 | 78.16219 | 89.18958 | 32002 ft | 814 kts | 61° |
| 2026-05-04 07:04 | 78.21662 | 89.67200 | 32003 ft | 814 kts | 62° |
| 2026-05-04 07:05 | 78.27052 | 90.16150 | 32000 ft | 813 kts | 62° |
| 2026-05-04 07:05 | 78.32348 | 90.65461 | 32001 ft | 813 kts | 63° |
| 2026-05-04 07:06 | 78.40097 | 91.39888 | 32001 ft | 812 kts | 64° |
| 2026-05-04 07:07 | 78.45179 | 91.90273 | 32004 ft | 812 kts | 65° |
| 2026-05-04 07:09 | 78.63758 | 93.86574 | 32001 ft | 811 kts | 68° |
| 2026-05-04 07:09 | 78.68404 | 94.39001 | 32001 ft | 811 kts | 69° |
| 2026-05-04 07:10 | 78.72932 | 94.91567 | 32001 ft | 810 kts | 70° |
| 2026-05-04 07:12 | 78.90107 | 97.05991 | 32002 ft | 809 kts | 73° |
| 2026-05-04 07:12 | 78.94136 | 97.60276 | 32007 ft | 808 kts | 74° |
| 2026-05-04 07:13 | 78.98089 | 98.15266 | 32011 ft | 809 kts | 75° |
| 2026-05-04 07:13 | 79.01931 | 98.70484 | 31985 ft | 810 kts | 76° |
| 2026-05-04 07:14 | 79.11120 | 100.10464 | 32044 ft | 805 kts | 78° |
| 2026-05-04 07:15 | 79.14602 | 100.67027 | 32026 ft | 807 kts | 65° |
| 2026-05-04 07:15 | 79.17962 | 101.23585 | 31990 ft | 798 kts | 65° |
| 2026-05-04 07:16 | 79.21201 | 101.79981 | 31982 ft | 798 kts | 66° |
| 2026-05-04 07:16 | 79.24362 | 102.37165 | 32011 ft | 800 kts | 66° |
| 2026-05-04 07:17 | 79.27402 | 102.94471 | 32000 ft | 803 kts | 68° |
| 2026-05-04 07:17 | 79.30360 | 103.52645 | 32006 ft | 804 kts | 69° |
| 2026-05-04 07:18 | 79.33190 | 104.10647 | 32006 ft | 806 kts | 69° |
| 2026-05-04 07:18 | 79.36162 | 104.69100 | 31996 ft | 800 kts | 64° |
| 2026-05-04 07:19 | 79.39873 | 105.25862 | 32013 ft | 794 kts | 60° |
| 2026-05-04 07:19 | 79.43764 | 105.81812 | 31999 ft | 794 kts | 60° |
| 2026-05-04 07:20 | 79.47529 | 106.38726 | 32000 ft | 797 kts | 62° |
| 2026-05-04 07:20 | 79.51064 | 106.96420 | 32006 ft | 798 kts | 59° |
| 2026-05-04 07:22 | 79.62600 | 109.02098 | 32011 ft | 811 kts | 73° |
| 2026-05-04 07:22 | 79.64150 | 109.31806 | 32012 ft | 813 kts | 74° |
| 2026-05-04 07:23 | 79.67225 | 109.92762 | 32006 ft | 815 kts | 75° |
| 2026-05-04 07:23 | 79.70174 | 110.53956 | 32002 ft | 816 kts | 76° |
| 2026-05-04 07:24 | 79.72994 | 111.15138 | 31999 ft | 816 kts | 77° |
| 2026-05-04 07:24 | 79.75715 | 111.76990 | 32000 ft | 815 kts | 78° |
| 2026-05-04 07:26 | 79.85363 | 114.25981 | 32001 ft | 810 kts | 82° |
| 2026-05-04 07:27 | 79.87477 | 114.88904 | 32002 ft | 810 kts | 83° |
| 2026-05-04 07:27 | 79.89469 | 115.52018 | 32002 ft | 809 kts | 84° |
| 2026-05-04 07:28 | 79.91339 | 116.15293 | 32003 ft | 809 kts | 85° |
| 2026-05-04 07:28 | 79.93077 | 116.78544 | 32008 ft | 810 kts | 80° |
| 2026-05-04 07:29 | 79.94711 | 117.42413 | 32009 ft | 811 kts | 81° |
| 2026-05-04 07:29 | 79.96224 | 118.06583 | 32005 ft | 813 kts | 82° |
| 2026-05-04 07:30 | 79.97606 | 118.70771 | 32003 ft | 814 kts | 83° |
| 2026-05-04 07:30 | 79.98869 | 119.35315 | 32001 ft | 814 kts | 84° |
| 2026-05-04 07:31 | 80.00198 | 120.00121 | 32011 ft | 814 kts | 80° |
| 2026-05-04 07:33 | 80.10546 | 122.53971 | 32004 ft | 814 kts | 78° |
| 2026-05-04 07:33 | 80.12858 | 123.18603 | 32002 ft | 814 kts | 79° |
| 2026-05-04 07:34 | 80.15051 | 123.83482 | 32002 ft | 814 kts | 80° |
| 2026-05-04 07:34 | 80.17142 | 124.48309 | 32001 ft | 813 kts | 81° |
| 2026-05-04 07:35 | 80.19125 | 125.13564 | 32001 ft | 813 kts | 82° |
| 2026-05-04 07:35 | 80.20980 | 125.79118 | 32001 ft | 812 kts | 83° |
| 2026-05-04 07:36 | 80.22693 | 126.44531 | 32001 ft | 811 kts | 84° |
| 2026-05-04 07:38 | 80.28287 | 129.08337 | 32003 ft | 809 kts | 88° |
| 2026-05-04 07:38 | 80.29364 | 129.74444 | 32000 ft | 808 kts | 89° |
| 2026-05-04 07:39 | 80.30317 | 130.40894 | 32002 ft | 808 kts | 90° |
| 2026-05-04 07:39 | 80.31139 | 131.07603 | 32009 ft | 809 kts | 85° |
| 2026-05-04 07:40 | 80.31839 | 131.74517 | 32008 ft | 812 kts | 86° |
| 2026-05-04 07:40 | 80.32409 | 132.41275 | 32006 ft | 814 kts | 88° |
| 2026-05-04 07:41 | 80.32851 | 133.08823 | 32005 ft | 815 kts | 89° |
| 2026-05-04 07:41 | 80.33159 | 133.76040 | 32001 ft | 815 kts | 90° |
| 2026-05-04 07:42 | 80.33336 | 134.43590 | 32000 ft | 815 kts | 91° |
| 2026-05-04 07:42 | 80.33383 | 135.10617 | 32000 ft | 814 kts | 91° |
| 2026-05-04 07:43 | 80.33297 | 135.77973 | 31997 ft | 813 kts | 91° |
| 2026-05-04 07:43 | 80.33083 | 136.45335 | 32002 ft | 813 kts | 92° |
| 2026-05-04 07:44 | 80.32738 | 137.12173 | 32003 ft | 812 kts | 91° |
| 2026-05-04 07:44 | 80.32262 | 137.79517 | 32001 ft | 813 kts | 92° |
| 2026-05-04 07:45 | 80.31656 | 138.46631 | 32004 ft | 813 kts | 94° |
| 2026-05-04 07:45 | 80.30925 | 139.13192 | 32001 ft | 813 kts | 95° |
| 2026-05-04 07:46 | 80.30058 | 139.80205 | 32001 ft | 812 kts | 96° |
| 2026-05-04 07:46 | 80.29063 | 140.46939 | 32002 ft | 812 kts | 97° |
| 2026-05-04 07:47 | 80.27935 | 141.13653 | 32002 ft | 812 kts | 94° |
| 2026-05-04 07:49 | 80.22173 | 143.77842 | 32001 ft | 813 kts | 98° |
| 2026-05-04 07:49 | 80.20410 | 144.43570 | 32002 ft | 813 kts | 99° |
| 2026-05-04 07:50 | 80.18519 | 145.09095 | 32001 ft | 813 kts | 100° |
| 2026-05-04 07:50 | 80.16519 | 145.73904 | 32001 ft | 813 kts | 101° |
| 2026-05-04 07:51 | 80.14381 | 146.38855 | 32002 ft | 812 kts | 102° |
| 2026-05-04 07:51 | 80.12135 | 147.03077 | 32002 ft | 812 kts | 103° |
| 2026-05-04 07:52 | 80.09748 | 147.67543 | 32001 ft | 812 kts | 104° |
| 2026-05-04 07:52 | 80.07262 | 148.31091 | 32001 ft | 812 kts | 105° |
| 2026-05-04 07:54 | 79.96251 | 150.71672 | 32006 ft | 806 kts | 114° |
| 2026-05-04 07:55 | 79.91883 | 151.42033 | 32002 ft | 804 kts | 116° |
| 2026-05-04 07:55 | 79.88694 | 151.92088 | 32000 ft | 804 kts | 116° |
| 2026-05-04 07:56 | 79.84892 | 152.51875 | 32002 ft | 804 kts | 116° |
| 2026-05-04 07:56 | 79.81029 | 153.11431 | 32002 ft | 803 kts | 117° |
| 2026-05-04 07:57 | 79.77076 | 153.69931 | 31978 ft | 805 kts | 110° |
| 2026-05-04 07:57 | 79.72942 | 154.28706 | 32014 ft | 810 kts | 111° |
| 2026-05-04 07:58 | 79.68706 | 154.86936 | 32010 ft | 814 kts | 112° |
| 2026-05-04 07:58 | 79.64327 | 155.45242 | 32007 ft | 816 kts | 113° |
| 2026-05-04 07:59 | 79.59843 | 156.03121 | 32002 ft | 816 kts | 114° |
| 2026-05-04 07:59 | 79.55250 | 156.60565 | 32000 ft | 816 kts | 115° |
| 2026-05-04 08:00 | 79.50573 | 157.17299 | 31999 ft | 814 kts | 115° |
| 2026-05-04 08:02 | 79.30957 | 159.38312 | 32001 ft | 811 kts | 119° |
| 2026-05-04 08:02 | 79.25818 | 159.92274 | 32002 ft | 811 kts | 120° |
| 2026-05-04 08:03 | 79.20589 | 160.45700 | 32001 ft | 810 kts | 121° |
| 2026-05-04 08:03 | 79.15291 | 160.98398 | 32002 ft | 810 kts | 121° |
| 2026-05-04 08:04 | 79.09873 | 161.50894 | 32001 ft | 810 kts | 122° |
| 2026-05-04 08:04 | 79.04383 | 162.02714 | 32001 ft | 810 kts | 123° |
| 2026-05-04 08:05 | 78.98805 | 162.54026 | 32003 ft | 809 kts | 124° |
| 2026-05-04 08:05 | 78.93171 | 163.04573 | 32001 ft | 809 kts | 124° |
| 2026-05-04 08:06 | 78.87426 | 163.54841 | 32001 ft | 809 kts | 126° |
| 2026-05-04 08:06 | 78.81590 | 164.04675 | 32002 ft | 808 kts | 126° |
| 2026-05-04 08:08 | 78.57590 | 165.97738 | 32002 ft | 805 kts | 129° |
| 2026-05-04 08:11 | 78.29224 | 168.04796 | 32002 ft | 802 kts | 132° |
| 2026-05-04 08:11 | 78.19464 | 168.71495 | 32002 ft | 801 kts | 133° |
| 2026-05-04 08:12 | 78.12920 | 169.15048 | 32002 ft | 800 kts | 134° |
| 2026-05-04 08:12 | 78.06261 | 169.58440 | 32001 ft | 799 kts | 135° |
| 2026-05-04 08:13 | 77.99607 | 170.00909 | 32002 ft | 798 kts | 135° |
| 2026-05-04 08:13 | 77.92845 | 170.43193 | 32002 ft | 797 kts | 136° |
| 2026-05-04 08:14 | 77.86031 | 170.84945 | 32001 ft | 797 kts | 137° |
| 2026-05-04 08:16 | 77.58206 | 172.47098 | 32014 ft | 803 kts | 126° |
| 2026-05-04 08:16 | 77.51050 | 172.86883 | 32011 ft | 809 kts | 127° |
| 2026-05-04 08:17 | 77.43756 | 173.26616 | 32009 ft | 813 kts | 128° |
| 2026-05-04 08:17 | 77.36361 | 173.66085 | 32192 ft | 816 kts | 128° |
| 2026-05-04 08:19 | 77.10231 | 174.99729 | 33648 ft | 810 kts | 130° |
| 2026-05-04 08:19 | 77.06434 | 175.18443 | 33805 ft | 809 kts | 130° |
| 2026-05-04 08:20 | 77.02637 | 175.36979 | 33921 ft | 809 kts | 131° |
| 2026-05-04 08:20 | 76.98821 | 175.55439 | 33979 ft | 809 kts | 131° |
| 2026-05-04 08:20 | 76.91202 | 175.91795 | 34004 ft | 808 kts | 131° |
| 2026-05-04 08:21 | 76.83476 | 176.27994 | 33999 ft | 807 kts | 132° |
| 2026-05-04 08:21 | 76.75766 | 176.63477 | 34002 ft | 807 kts | 133° |
| 2026-05-04 08:22 | 76.67989 | 176.98646 | 33731 ft | 811 kts | 133° |
| 2026-05-04 08:24 | 76.40317 | 178.18918 | 32074 ft | 808 kts | 135° |
| 2026-05-04 08:24 | 76.36320 | 178.35699 | 32013 ft | 809 kts | 135° |
| 2026-05-04 08:24 | 76.28293 | 178.68971 | 32006 ft | 813 kts | 136° |
| 2026-05-04 08:25 | 76.20147 | 179.02166 | 32003 ft | 815 kts | 136° |
| 2026-05-04 08:25 | 76.11999 | 179.34810 | 31999 ft | 816 kts | 137° |
| 2026-05-04 08:27 | 75.78877 | -179.37910 | 32000 ft | 812 kts | 139° |
| 2026-05-04 08:28 | 75.70509 | -179.07050 | 32000 ft | 812 kts | 139° |
| 2026-05-04 08:28 | 75.62153 | -178.76730 | 32002 ft | 811 kts | 140° |
| 2026-05-04 08:29 | 75.53707 | -178.46571 | 32000 ft | 811 kts | 138° |
| 2026-05-04 08:31 | 75.19601 | -177.29480 | 32002 ft | 812 kts | 138° |
| 2026-05-04 08:33 | 74.84924 | -176.17580 | 32002 ft | 813 kts | 140° |
| 2026-05-04 08:35 | 74.49628 | -175.10333 | 32001 ft | 813 kts | 141° |
| 2026-05-04 08:35 | 74.40789 | -174.84452 | 32002 ft | 813 kts | 142° |
| 2026-05-04 08:37 | 74.09392 | -173.95447 | 32002 ft | 813 kts | 143° |
| 2026-05-04 08:38 | 74.00391 | -173.70741 | 32001 ft | 813 kts | 143° |
| 2026-05-04 08:38 | 73.91326 | -173.46206 | 32001 ft | 813 kts | 144° |
| 2026-05-04 08:40 | 73.54901 | -172.50987 | 32001 ft | 812 kts | 145° |
| 2026-05-04 08:41 | 73.45703 | -172.27755 | 32001 ft | 812 kts | 146° |
| 2026-05-04 08:41 | 73.36546 | -172.04936 | 32002 ft | 812 kts | 146° |
| 2026-05-04 08:42 | 73.27304 | -171.82216 | 32001 ft | 812 kts | 146° |
| 2026-05-04 08:42 | 73.19609 | -171.63529 | 32002 ft | 812 kts | 147° |
| 2026-05-04 08:43 | 73.10316 | -171.41233 | 32002 ft | 812 kts | 147° |
| 2026-05-04 08:43 | 73.01056 | -171.19309 | 32001 ft | 812 kts | 147° |
| 2026-05-04 08:44 | 72.91735 | -170.97530 | 32002 ft | 812 kts | 148° |
| 2026-05-04 08:46 | 72.54211 | -170.12642 | 32001 ft | 811 kts | 149° |
| 2026-05-04 08:46 | 72.44849 | -169.92131 | 32002 ft | 811 kts | 149° |
| 2026-05-04 08:47 | 72.35375 | -169.71636 | 32002 ft | 811 kts | 149° |
| 2026-05-04 08:47 | 72.25899 | -169.51395 | 32002 ft | 811 kts | 150° |
| 2026-05-04 08:48 | 72.16474 | -169.31510 | 32001 ft | 811 kts | 150° |
| 2026-05-04 08:48 | 72.06959 | -169.11683 | 32001 ft | 811 kts | 150° |
| 2026-05-04 08:49 | 71.97482 | -168.92119 | 31995 ft | 811 kts | 146° |
| 2026-05-04 08:50 | 71.69403 | -168.31449 | 32104 ft | 811 kts | 144° |
| 2026-05-04 08:50 | 71.64687 | -168.21511 | 32169 ft | 810 kts | 147° |
| 2026-05-04 08:51 | 71.55295 | -168.02028 | 32307 ft | 810 kts | 147° |
| 2026-05-04 08:51 | 71.45814 | -167.82606 | 32451 ft | 809 kts | 147° |
| 2026-05-04 08:52 | 71.36398 | -167.63478 | 32594 ft | 809 kts | 148° |
| 2026-05-04 08:52 | 71.26925 | -167.44426 | 32742 ft | 809 kts | 148° |
| 2026-05-04 08:54 | 70.88815 | -166.70053 | 33001 ft | 811 kts | 149° |
| 2026-05-04 08:55 | 70.79213 | -166.51852 | 33002 ft | 811 kts | 149° |
| 2026-05-04 08:55 | 70.69658 | -166.33945 | 33001 ft | 810 kts | 149° |
| 2026-05-04 09:01 | 69.68033 | -164.55287 | 33002 ft | 810 kts | 150° |
| 2026-05-04 09:01 | 69.58246 | -164.39135 | 33003 ft | 810 kts | 151° |
| 2026-05-04 09:02 | 69.48445 | -164.23131 | 33001 ft | 810 kts | 151° |
| 2026-05-04 09:02 | 69.38691 | -164.07373 | 33001 ft | 810 kts | 151° |
| 2026-05-04 09:03 | 69.28849 | -163.91638 | 33002 ft | 810 kts | 152° |
| 2026-05-04 09:03 | 69.19011 | -163.76075 | 33002 ft | 810 kts | 152° |
| 2026-05-04 09:04 | 69.09210 | -163.60731 | 33003 ft | 810 kts | 152° |
| 2026-05-04 09:04 | 68.99339 | -163.45435 | 33014 ft | 811 kts | 152° |
| 2026-05-04 09:05 | 68.89442 | -163.30263 | 32998 ft | 812 kts | 152° |
| 2026-05-04 09:05 | 68.79514 | -163.15198 | 33006 ft | 813 kts | 153° |
| 2026-05-04 09:06 | 68.69640 | -163.00364 | 32995 ft | 813 kts | 153° |
| 2026-05-04 09:08 | 68.29754 | -162.41895 | 32843 ft | 811 kts | 154° |
| 2026-05-04 09:08 | 68.24762 | -162.34758 | 33010 ft | 809 kts | 153° |
| 2026-05-04 09:08 | 68.19833 | -162.27751 | 33019 ft | 811 kts | 152° |
| 2026-05-04 09:09 | 68.09812 | -162.13592 | 32960 ft | 815 kts | 152° |
| 2026-05-04 09:09 | 67.99773 | -161.99539 | 33014 ft | 812 kts | 153° |
| 2026-05-04 09:10 | 67.89790 | -161.85703 | 33006 ft | 811 kts | 153° |
| 2026-05-04 09:10 | 67.79758 | -161.71907 | 33077 ft | 813 kts | 153° |
| 2026-05-04 09:11 | 67.69638 | -161.58139 | 33001 ft | 818 kts | 153° |
| 2026-05-04 09:11 | 67.59601 | -161.44662 | 33020 ft | 811 kts | 152° |
| 2026-05-04 09:11 | 67.54559 | -161.37926 | 32908 ft | 812 kts | 153° |
| 2026-05-04 09:12 | 67.49530 | -161.31227 | 33025 ft | 810 kts | 153° |
| 2026-05-04 09:14 | 67.09183 | -160.78680 | 33001 ft | 807 kts | 153° |
| 2026-05-04 09:14 | 66.99160 | -160.65918 | 32972 ft | 808 kts | 153° |
| 2026-05-04 09:15 | 66.89072 | -160.53203 | 33023 ft | 808 kts | 154° |
| 2026-05-04 09:15 | 66.79009 | -160.40652 | 32944 ft | 810 kts | 154° |
| 2026-05-04 09:17 | 66.33332 | -159.85026 | 33004 ft | 812 kts | 154° |
| 2026-05-04 09:18 | 66.23120 | -159.72897 | 32999 ft | 813 kts | 155° |
| 2026-05-04 09:18 | 66.12894 | -159.60861 | 33008 ft | 813 kts | 155° |
| 2026-05-04 09:19 | 66.02662 | -159.48930 | 32983 ft | 814 kts | 155° |
| 2026-05-04 09:19 | 65.92440 | -159.37118 | 33000 ft | 813 kts | 155° |
| 2026-05-04 09:20 | 65.82188 | -159.25368 | 33001 ft | 812 kts | 155° |
| 2026-05-04 09:20 | 65.72002 | -159.13797 | 32988 ft | 812 kts | 155° |
| 2026-05-04 09:21 | 65.61734 | -159.02238 | 33004 ft | 811 kts | 156° |
| 2026-05-04 09:21 | 65.51484 | -158.90800 | 33016 ft | 811 kts | 156° |
| 2026-05-04 09:22 | 65.41242 | -158.79460 | 33015 ft | 815 kts | 156° |
| 2026-05-04 09:22 | 65.30954 | -158.68173 | 32996 ft | 809 kts | 156° |
| 2026-05-04 09:23 | 65.20705 | -158.57034 | 33056 ft | 811 kts | 156° |
| 2026-05-04 09:23 | 65.10456 | -158.45990 | 33015 ft | 815 kts | 156° |
| 2026-05-04 09:25 | 64.69173 | -158.02406 | 32975 ft | 810 kts | 157° |
| 2026-05-04 09:26 | 64.58857 | -157.91750 | 33002 ft | 808 kts | 157° |
| 2026-05-04 09:26 | 64.48551 | -157.81189 | 33000 ft | 807 kts | 157° |
| 2026-05-04 09:27 | 64.38289 | -157.70757 | 33005 ft | 807 kts | 157° |
| 2026-05-04 09:27 | 64.27970 | -157.60349 | 33005 ft | 810 kts | 157° |
| 2026-05-04 09:28 | 64.17666 | -157.50035 | 32983 ft | 813 kts | 157° |
| 2026-05-04 09:28 | 64.07270 | -157.39741 | 33028 ft | 812 kts | 158° |
| 2026-05-04 09:29 | 63.96854 | -157.29497 | 33001 ft | 813 kts | 158° |
| 2026-05-04 09:29 | 63.86518 | -157.19398 | 32997 ft | 811 kts | 158° |
| 2026-05-04 09:30 | 63.77881 | -157.11027 | 32987 ft | 808 kts | 158° |
| 2026-05-04 09:30 | 63.67503 | -157.01052 | 33005 ft | 807 kts | 158° |
| 2026-05-04 09:31 | 63.57214 | -156.91240 | 33005 ft | 807 kts | 158° |
| 2026-05-04 09:31 | 63.46837 | -156.81418 | 33005 ft | 809 kts | 158° |
| 2026-05-04 09:32 | 63.36502 | -156.71713 | 32964 ft | 810 kts | 158° |
| 2026-05-04 09:34 | 62.94756 | -156.33271 | 32994 ft | 814 kts | 159° |
| 2026-05-04 09:34 | 62.84270 | -156.23793 | 33037 ft | 814 kts | 158° |
| 2026-05-04 09:35 | 62.73843 | -156.14448 | 33008 ft | 812 kts | 159° |
| 2026-05-04 09:35 | 62.63413 | -156.05183 | 33000 ft | 805 kts | 160° |
| 2026-05-04 09:37 | 62.21659 | -155.68744 | 32984 ft | 811 kts | 160° |
| 2026-05-04 09:38 | 62.11155 | -155.59747 | 33005 ft | 811 kts | 160° |
| 2026-05-04 09:38 | 62.00725 | -155.50881 | 32995 ft | 811 kts | 160° |
| 2026-05-04 09:39 | 61.90227 | -155.42028 | 33009 ft | 810 kts | 160° |
| 2026-05-04 09:39 | 61.79782 | -155.33276 | 32995 ft | 811 kts | 160° |
| 2026-05-04 09:40 | 61.69260 | -155.24530 | 33013 ft | 813 kts | 160° |
| 2026-05-04 09:40 | 61.58701 | -155.15815 | 33002 ft | 813 kts | 161° |
| 2026-05-04 09:42 | 61.16579 | -154.81675 | 33023 ft | 813 kts | 158° |
| 2026-05-04 09:43 | 61.06003 | -154.73255 | 33009 ft | 813 kts | 158° |
| 2026-05-04 09:43 | 60.95501 | -154.64883 | 32985 ft | 812 kts | 158° |
| 2026-05-04 09:44 | 60.85009 | -154.56120 | 33007 ft | 813 kts | 156° |
| 2026-05-04 09:46 | 60.43015 | -154.21469 | 32949 ft | 819 kts | 157° |
| 2026-05-04 09:46 | 60.32467 | -154.12964 | 33022 ft | 812 kts | 157° |
| 2026-05-04 09:47 | 60.21940 | -154.04539 | 32942 ft | 814 kts | 157° |
| 2026-05-04 09:49 | 59.85039 | -153.75453 | 32080 ft | 807 kts | 158° |
| 2026-05-04 09:49 | 59.79809 | -153.71386 | 31891 ft | 803 kts | 158° |
| 2026-05-04 09:49 | 59.74652 | -153.67389 | 31634 ft | 804 kts | 158° |
| 2026-05-04 09:51 | 59.43366 | -153.43428 | 27410 ft | 807 kts | 158° |
| 2026-05-04 09:51 | 59.38161 | -153.39487 | 26296 ft | 795 kts | 158° |
| 2026-05-04 09:51 | 59.33004 | -153.35604 | 25158 ft | 786 kts | 158° |
| 2026-05-04 09:51 | 59.27925 | -153.31787 | 24087 ft | 775 kts | 158° |
| 2026-05-04 09:52 | 59.22917 | -153.28028 | 22991 ft | 765 kts | 158° |
| 2026-05-04 09:52 | 59.17973 | -153.24329 | 21917 ft | 756 kts | 158° |
| 2026-05-04 09:52 | 59.13151 | -153.20733 | 20970 ft | 746 kts | 158° |
| 2026-05-04 09:52 | 59.08322 | -153.17143 | 20019 ft | 736 kts | 158° |
| 2026-05-04 09:53 | 59.03555 | -153.13610 | 19071 ft | 727 kts | 158° |
| 2026-05-04 09:53 | 58.98901 | -153.09925 | 18128 ft | 717 kts | 152° |
| 2026-05-04 09:53 | 58.94466 | -153.05883 | 17189 ft | 709 kts | 150° |
| 2026-05-04 09:53 | 58.89996 | -153.01797 | 16233 ft | 702 kts | 151° |
| 2026-05-04 09:54 | 58.85611 | -152.97847 | 15266 ft | 687 kts | 151° |
| 2026-05-04 09:54 | 58.81350 | -152.94063 | 14407 ft | 673 kts | 152° |
| 2026-05-04 09:54 | 58.77144 | -152.90367 | 13752 ft | 654 kts | 152° |
| 2026-05-04 09:54 | 58.73055 | -152.86783 | 13168 ft | 636 kts | 166° |
| 2026-05-04 09:55 | 58.69116 | -152.83301 | 12733 ft | 606 kts | 165° |
| 2026-05-04 09:55 | 58.65394 | -152.79981 | 12242 ft | 578 kts | 169° |
| 2026-05-04 09:55 | 58.61855 | -152.76809 | 11971 ft | 541 kts | 172° |
| 2026-05-04 09:55 | 58.58555 | -152.73841 | 11705 ft | 503 kts | 171° |
| 2026-05-04 09:56 | 58.55505 | -152.71152 | 11538 ft | 461 kts | 167° |
| 2026-05-04 09:56 | 58.52747 | -152.68747 | 11351 ft | 420 kts | 171° |
| 2026-05-04 09:56 | 58.50202 | -152.66535 | 11136 ft | 381 kts | 173° |
| 2026-05-04 09:56 | 58.47890 | -152.64528 | 10883 ft | 347 kts | 172° |
| 2026-05-04 09:57 | 58.45774 | -152.62713 | 10624 ft | 319 kts | 173° |
| 2026-05-04 09:57 | 58.43829 | -152.61058 | 10529 ft | 298 kts | 175° |
| 2026-05-04 09:57 | 58.41927 | -152.59500 | 10492 ft | 303 kts | 172° |
| 2026-05-04 09:57 | 58.39973 | -152.57900 | 10316 ft | 308 kts | 171° |
| 2026-05-04 09:58 | 58.37992 | -152.56261 | 9954 ft | 311 kts | 171° |
| 2026-05-04 09:58 | 58.36012 | -152.54591 | 9654 ft | 306 kts | 171° |
| 2026-05-04 09:58 | 58.34124 | -152.52958 | 9394 ft | 291 kts | 172° |
| 2026-05-04 10:00 | 58.21179 | -152.41942 | 7542 ft | 291 kts | 170° |
| 2026-05-04 10:00 | 58.19343 | -152.40369 | 7320 ft | 286 kts | 168° |
| 2026-05-04 10:02 | 58.06742 | -152.29723 | 5221 ft | 281 kts | 168° |
| 2026-05-04 10:04 | 57.94172 | -152.19179 | 2921 ft | 280 kts | 168° |
| 2026-05-04 10:04 | 57.92420 | -152.17696 | 2570 ft | 278 kts | 165° |
| 2026-05-04 10:04 | 57.90829 | -152.15469 | 2196 ft | 295 kts | 141° |
| 2026-05-04 10:04 | 57.89503 | -152.12509 | 1863 ft | 293 kts | 143° |
| 2026-05-04 10:05 | 57.88051 | -152.09907 | 1675 ft | 280 kts | 152° |
| 2026-05-04 10:05 | 57.86534 | -152.07832 | 1587 ft | 259 kts | 161° |
| 2026-05-04 10:05 | 57.85050 | -152.06251 | 1584 ft | 240 kts | 168° |
| 2026-05-04 10:05 | 57.83505 | -152.04976 | 1606 ft | 240 kts | 174° |
| 2026-05-04 10:06 | 57.81979 | -152.04022 | 1595 ft | 226 kts | 180° |
| 2026-05-04 10:06 | 57.80483 | -152.03386 | 1585 ft | 214 kts | 187° |
| 2026-05-04 10:06 | 57.79046 | -152.03014 | 1589 ft | 204 kts | 191° |
| 2026-05-04 10:08 | 57.74723 | -152.09605 | 1607 ft | 141 kts | 265° |
| 2026-05-04 10:08 | 57.74626 | -152.11413 | 1596 ft | 138 kts | 266° |
| 2026-05-04 10:08 | 57.74566 | -152.13169 | 1598 ft | 135 kts | 269° |
| 2026-05-04 10:08 | 57.74553 | -152.14931 | 1599 ft | 134 kts | 271° |
| 2026-05-04 10:09 | 57.74565 | -152.16628 | 1591 ft | 127 kts | 272° |
| 2026-05-04 10:09 | 57.74587 | -152.18265 | 1590 ft | 124 kts | 272° |
| 2026-05-04 10:09 | 57.74613 | -152.19856 | 1598 ft | 124 kts | 273° |
| 2026-05-04 10:09 | 57.74642 | -152.21451 | 1593 ft | 119 kts | 272° |
| 2026-05-04 10:10 | 57.74671 | -152.22974 | 1596 ft | 116 kts | 272° |
| 2026-05-04 10:10 | 57.74699 | -152.24488 | 1624 ft | 117 kts | 272° |
| 2026-05-04 10:10 | 57.74728 | -152.25987 | 1597 ft | 110 kts | 272° |
| 2026-05-04 10:10 | 57.74753 | -152.27348 | 1518 ft | 99 kts | 272° |
| 2026-05-04 10:11 | 57.74777 | -152.28587 | 1449 ft | 94 kts | 272° |
| 2026-05-04 10:11 | 57.74800 | -152.29822 | 1359 ft | 95 kts | 272° |
| 2026-05-04 10:11 | 57.74822 | -152.31052 | 1277 ft | 94 kts | 272° |
| 2026-05-04 10:11 | 57.74846 | -152.32270 | 1191 ft | 93 kts | 273° |
| 2026-05-04 10:12 | 57.74871 | -152.33491 | 1106 ft | 94 kts | 272° |
| 2026-05-04 10:12 | 57.74894 | -152.34693 | 1022 ft | 93 kts | 272° |
| 2026-05-04 10:12 | 57.74916 | -152.35921 | 929 ft | 96 kts | 272° |
| 2026-05-04 10:12 | 57.74940 | -152.37165 | 847 ft | 98 kts | 272° |
| 2026-05-04 10:13 | 57.74964 | -152.38454 | 743 ft | 100 kts | 273° |
| 2026-05-04 10:13 | 57.74989 | -152.39766 | 660 ft | 101 kts | 272° |
| 2026-05-04 10:13 | 57.75014 | -152.41102 | 567 ft | 104 kts | 273° |
| 2026-05-04 10:13 | 57.75040 | -152.42463 | 478 ft | 108 kts | 272° |
| 2026-05-04 10:14 | 57.75067 | -152.43909 | 373 ft | 113 kts | 272° |
| 2026-05-04 10:14 | 57.75094 | -152.45366 | 269 ft | 110 kts | 273° |
| 2026-05-04 10:16 | 57.75298 | -152.51386 | 84 ft | 0 kts | 269° |
| 2026-05-04 10:25 | 57.75294 | -152.51418 | 84 ft | 9 kts | 252° |
| 2026-05-04 10:25 | 57.75251 | -152.51600 | 87 ft | 17 kts | 231° |
| 2026-05-04 10:25 | 57.75185 | -152.51517 | 86 ft | 16 kts | 116° |
| 2026-05-04 10:25 | 57.75179 | -152.51496 | 87 ft | 3 kts | 118° |
| 2026-05-04 10:26 | 57.75199 | -152.51567 | 85 ft | 9 kts | 115° |
| 2026-05-04 10:26 | 57.75207 | -152.51703 | 90 ft | 13 kts | 93° |
| 2026-05-04 10:26 | 57.75212 | -152.51882 | 92 ft | 6 kts | 93° |
| 2026-05-04 10:26 | 57.75212 | -152.51892 | 90 ft | 0 kts | 93° |
| 2026-05-04 10:27 | 57.75207 | -152.51599 | 87 ft | 64 kts | 91° |
| 2026-05-04 10:28 | 57.75188 | -152.50210 | 62 ft | 146 kts | 92° |
| 2026-05-04 10:28 | 57.75159 | -152.48246 | 839 ft | 134 kts | 93° |
| 2026-05-04 10:28 | 57.75149 | -152.46463 | 1676 ft | 147 kts | 91° |
| 2026-05-04 10:28 | 57.75137 | -152.44401 | 1932 ft | 171 kts | 91° |
| 2026-05-04 10:29 | 57.75123 | -152.42071 | 2339 ft | 185 kts | 92° |
| 2026-05-04 10:29 | 57.75115 | -152.39744 | 3487 ft | 169 kts | 91° |
| 2026-05-04 10:29 | 57.75113 | -152.37552 | 4408 ft | 168 kts | 91° |
| 2026-05-04 10:29 | 57.75128 | -152.35411 | 5224 ft | 171 kts | 101° |
| 2026-05-04 10:30 | 57.75417 | -152.32985 | 5566 ft | 208 kts | 97° |
| 2026-05-04 10:30 | 57.76059 | -152.30397 | 6299 ft | 227 kts | 93° |
| 2026-05-04 10:30 | 57.76864 | -152.27673 | 6705 ft | 257 kts | 94° |
| 2026-05-04 10:30 | 57.77868 | -152.24820 | 7449 ft | 266 kts | 95° |
| 2026-05-04 10:31 | 57.79017 | -152.22111 | 8503 ft | 259 kts | 91° |
| 2026-05-04 10:31 | 57.80174 | -152.19615 | 9636 ft | 253 kts | 94° |
| 2026-05-04 10:32 | 57.88465 | -152.03952 | 12825 ft | 219 kts | 117° |
| 2026-05-04 10:33 | 57.88910 | -152.01553 | 13504 ft | 179 kts | 124° |
| 2026-05-04 10:33 | 57.89164 | -151.99329 | 14166 ft | 174 kts | 126° |
| 2026-05-04 10:33 | 57.89457 | -151.96994 | 14808 ft | 192 kts | 122° |
| 2026-05-04 10:33 | 57.89861 | -151.94494 | 15429 ft | 215 kts | 118° |
| 2026-05-04 10:34 | 57.90595 | -151.91602 | 16011 ft | 275 kts | 107° |
| 2026-05-04 10:34 | 57.91827 | -151.88356 | 16624 ft | 332 kts | 96° |
| 2026-05-04 10:34 | 57.93545 | -151.84954 | 17205 ft | 386 kts | 86° |
| 2026-05-04 10:34 | 57.95756 | -151.81592 | 17775 ft | 439 kts | 76° |
| 2026-05-04 10:35 | 57.98500 | -151.78348 | 18232 ft | 485 kts | 67° |
| 2026-05-04 10:35 | 58.01582 | -151.75295 | 18496 ft | 529 kts | 59° |
| 2026-05-04 10:35 | 58.05163 | -151.72593 | 18865 ft | 577 kts | 49° |
| 2026-05-04 10:35 | 58.09174 | -151.70495 | 19373 ft | 617 kts | 39° |
| 2026-05-04 10:36 | 58.13529 | -151.69151 | 19934 ft | 650 kts | 29° |
| 2026-05-04 10:36 | 58.18141 | -151.68558 | 20470 ft | 671 kts | 22° |
| 2026-05-04 10:36 | 58.22843 | -151.68316 | 20956 ft | 680 kts | 20° |
| 2026-05-04 10:36 | 58.27639 | -151.68362 | 21299 ft | 696 kts | 15° |
| 2026-05-04 10:37 | 58.32544 | -151.68660 | 21485 ft | 713 kts | 11° |
| 2026-05-04 10:37 | 58.37472 | -151.69037 | 21635 ft | 717 kts | 12° |
| 2026-05-04 10:37 | 58.42483 | -151.68597 | 21631 ft | 727 kts | 4° |
| 2026-05-04 10:37 | 58.47604 | -151.67687 | 21773 ft | 739 kts | 6° |
| 2026-05-04 10:39 | 58.79104 | -151.61738 | 24034 ft | 767 kts | 4° |
| 2026-05-04 10:39 | 58.84434 | -151.60871 | 24432 ft | 770 kts | 4° |
| 2026-05-04 10:39 | 58.89726 | -151.59999 | 24798 ft | 773 kts | 4° |
| 2026-05-04 10:40 | 58.95109 | -151.59091 | 25166 ft | 776 kts | 4° |
| 2026-05-04 10:40 | 59.00526 | -151.58158 | 25540 ft | 779 kts | 5° |
| 2026-05-04 10:40 | 59.05938 | -151.57213 | 25917 ft | 782 kts | 5° |
| 2026-05-04 10:40 | 59.11380 | -151.56258 | 26285 ft | 784 kts | 5° |
| 2026-05-04 10:41 | 59.16759 | -151.55311 | 26631 ft | 786 kts | 5° |
| 2026-05-04 10:41 | 59.22222 | -151.54350 | 26976 ft | 789 kts | 1° |
| 2026-05-04 10:41 | 59.27710 | -151.53388 | 27358 ft | 791 kts | 4° |
| 2026-05-04 10:41 | 59.33246 | -151.52417 | 27715 ft | 794 kts | 4° |
| 2026-05-04 10:42 | 59.38684 | -151.51458 | 27930 ft | 799 kts | 4° |
| 2026-05-04 10:42 | 59.49826 | -151.49480 | 28390 ft | 801 kts | 4° |
| 2026-05-04 10:42 | 59.55366 | -151.48488 | 28891 ft | 798 kts | 4° |
| 2026-05-04 10:43 | 59.60888 | -151.47500 | 29350 ft | 795 kts | 4° |
| 2026-05-04 10:44 | 59.98696 | -151.32227 | 31009 ft | 793 kts | 19° |
| 2026-05-04 10:45 | 60.04047 | -151.29472 | 30998 ft | 791 kts | 18° |
| 2026-05-04 10:45 | 60.14666 | -151.24226 | 31009 ft | 790 kts | 18° |
| 2026-05-04 10:46 | 60.25385 | -151.19019 | 31013 ft | 790 kts | 18° |
| 2026-05-04 10:46 | 60.36028 | -151.13768 | 30996 ft | 791 kts | 18° |
| 2026-05-04 10:47 | 60.46683 | -151.08416 | 31003 ft | 791 kts | 18° |
| 2026-05-04 10:47 | 60.57367 | -151.03001 | 30990 ft | 791 kts | 18° |
| 2026-05-04 10:49 | 60.98247 | -150.82015 | 31005 ft | 789 kts | 18° |
| 2026-05-04 10:50 | 61.10619 | -150.75551 | 30998 ft | 788 kts | 19° |
| 2026-05-04 10:52 | 61.51346 | -150.53903 | 30998 ft | 788 kts | 19° |
| 2026-05-04 10:52 | 61.62001 | -150.48143 | 31001 ft | 789 kts | 19° |
| 2026-05-04 10:54 | 61.99787 | -150.27376 | 31010 ft | 811 kts | 19° |
| 2026-05-04 10:54 | 62.05177 | -150.24372 | 31006 ft | 812 kts | 19° |
| 2026-05-04 10:56 | 62.48912 | -149.98857 | 30999 ft | 813 kts | 22° |
| 2026-05-04 10:57 | 62.59733 | -149.91937 | 30957 ft | 814 kts | 21° |
| 2026-05-04 10:57 | 62.70615 | -149.85060 | 30848 ft | 807 kts | 21° |
| 2026-05-04 10:57 | 62.76020 | -149.81641 | 30990 ft | 808 kts | 21° |
| 2026-05-04 10:58 | 62.81434 | -149.78201 | 31013 ft | 810 kts | 21° |
| 2026-05-04 10:58 | 62.92215 | -149.71333 | 31070 ft | 806 kts | 16° |
| 2026-05-04 10:59 | 63.03060 | -149.64352 | 30839 ft | 816 kts | 17° |
| 2026-05-04 10:59 | 63.13984 | -149.57250 | 30975 ft | 818 kts | 17° |
| 2026-05-04 11:00 | 63.24866 | -149.50123 | 30959 ft | 820 kts | 17° |
| 2026-05-04 11:02 | 63.68747 | -149.20846 | 31005 ft | 822 kts | 17° |
| 2026-05-04 11:05 | 64.50488 | -148.63711 | 31006 ft | 816 kts | 18° |
| 2026-05-04 11:06 | 64.61318 | -148.55866 | 31005 ft | 816 kts | 18° |
| 2026-05-04 11:06 | 64.72121 | -148.47974 | 31007 ft | 817 kts | 18° |
| 2026-05-04 11:08 | 65.10089 | -148.19717 | 30845 ft | 820 kts | 19° |
| 2026-05-04 11:10 | 65.47960 | -147.90680 | 31013 ft | 817 kts | 19° |
| 2026-05-04 11:12 | 65.91296 | -147.56345 | 31015 ft | 820 kts | 19° |
| 2026-05-04 11:12 | 66.02118 | -147.47577 | 30997 ft | 815 kts | 19° |
| 2026-05-04 11:13 | 66.12857 | -147.38799 | 31003 ft | 811 kts | 20° |
| 2026-05-04 11:13 | 66.23572 | -147.29961 | 31003 ft | 809 kts | 20° |
| 2026-05-04 11:14 | 66.25307 | -147.28523 | 31009 ft | 809 kts | 20° |
| 2026-05-04 11:16 | 66.77205 | -146.84506 | 31006 ft | 818 kts | 20° |
| 2026-05-04 11:16 | 66.87918 | -146.75178 | 30995 ft | 818 kts | 20° |
| 2026-05-04 11:17 | 66.98701 | -146.65698 | 31002 ft | 818 kts | 21° |
| 2026-05-04 11:19 | 67.41670 | -146.27021 | 31019 ft | 818 kts | 21° |
| 2026-05-04 11:19 | 67.52407 | -146.17127 | 31073 ft | 814 kts | 21° |
| 2026-05-04 11:20 | 67.63113 | -146.07148 | 31011 ft | 817 kts | 21° |
| 2026-05-04 11:20 | 67.73758 | -145.97199 | 30999 ft | 818 kts | 21° |
| 2026-05-04 11:22 | 68.16781 | -145.56097 | 31010 ft | 822 kts | 19° |
| 2026-05-04 11:23 | 68.27487 | -145.45596 | 30997 ft | 822 kts | 19° |
| 2026-05-04 11:25 | 68.65094 | -145.07862 | 31108 ft | 821 kts | 18° |
| 2026-05-04 11:25 | 68.75765 | -144.96939 | 31126 ft | 821 kts | 18° |
| 2026-05-04 11:27 | 69.23915 | -144.46097 | 30979 ft | 821 kts | 19° |
| 2026-05-04 11:28 | 69.34591 | -144.34509 | 31083 ft | 821 kts | 19° |
| 2026-05-04 11:28 | 69.45236 | -144.22800 | 31058 ft | 821 kts | 20° |
| 2026-05-04 11:29 | 69.55903 | -144.10979 | 31015 ft | 817 kts | 19° |
| 2026-05-04 11:29 | 69.66424 | -143.99187 | 30994 ft | 815 kts | 20° |
| 2026-05-04 11:33 | 70.39975 | -143.13014 | 31000 ft | 815 kts | 21° |
| 2026-05-04 11:33 | 70.50414 | -143.00237 | 31001 ft | 815 kts | 21° |
| 2026-05-04 11:34 | 70.60930 | -142.87220 | 31000 ft | 816 kts | 21° |
| 2026-05-04 11:34 | 70.71384 | -142.74133 | 31003 ft | 816 kts | 22° |
| 2026-05-04 11:35 | 70.81893 | -142.60828 | 31003 ft | 816 kts | 22° |
| 2026-05-04 11:35 | 70.92311 | -142.47486 | 30998 ft | 816 kts | 22° |
| 2026-05-04 11:36 | 71.02775 | -142.33931 | 31004 ft | 815 kts | 22° |
| 2026-05-04 11:36 | 71.11488 | -142.22523 | 31001 ft | 815 kts | 22° |
| 2026-05-04 11:37 | 71.21877 | -142.08775 | 31002 ft | 815 kts | 22° |
| 2026-05-04 11:37 | 71.32348 | -141.94757 | 31004 ft | 815 kts | 23° |
| 2026-05-04 11:38 | 71.42721 | -141.80705 | 31000 ft | 815 kts | 23° |
| 2026-05-04 11:38 | 71.53116 | -141.66455 | 31004 ft | 815 kts | 23° |
| 2026-05-04 11:39 | 71.63529 | -141.52009 | 31002 ft | 815 kts | 24° |
| 2026-05-04 11:41 | 71.99735 | -141.00398 | 31004 ft | 815 kts | 24° |